Time;durP1;ratioP1;P1;durP2;ratioP2;P2;SDS_P1;SDS_P2;PMS_P1;PMS_P2;Temp;Humidity;BMP_temperature;BMP_pressure;BME280_temperature;BME280_humidity;BME280_pressure;Samples;Min_cycle;Max_cycle;Signal;HPM_P1;HPM_P2
2023/03/23 00:01:30;;;;;;;;;;;;;;;13.76;80.18;99219.19;7354081;19;20175;-67
2023/03/23 00:03:58;;;;;;;;;;;;;;;13.73;79.67;99216.94;7359285;19;19966;-65
2023/03/23 00:06:26;;;;;;;;;;;;;;;13.71;80.81;99213.72;7358506;19;19938;-63
2023/03/23 00:11:26;;;;;;;;;;;;;;;13.67;80.12;99234.47;7358081;19;19922;-64
2023/03/23 00:13:53;;;;;;;;;;;;;;;13.66;79.75;99232.06;7359194;19;20501;-64
2023/03/23 00:16:28;;;;;;;;;;;;;;;13.65;79.83;99246.28;7361735;19;19923;-64
2023/03/23 00:18:56;;;;;;;;;;;;;;;13.63;79.61;99241.22;7357220;19;19919;-63
2023/03/23 00:21:33;;;;;;;;;;;;;;;13.64;79.83;99242.03;7356388;19;19926;-64
2023/03/23 00:24:01;;;;;;;;;;;;;;;13.65;79.33;99233.06;7357082;19;20300;-65
2023/03/23 00:26:29;;;;;;;;;;;;;;;13.65;79.25;99238.38;7355986;19;20468;-66
2023/03/23 00:29:16;;;;;;;;;;;;;;;13.62;78.43;99238.75;7359379;19;20599;-69
2023/03/23 00:34:18;;;;;;;;;;;;;;;13.61;80.25;99248.53;7357411;19;19919;-63
2023/03/23 00:36:47;;;;;;;;;;;;;;;13.58;78.59;99246.31;7358098;19;19926;-63
2023/03/23 00:39:16;;;;;;;;;;;;;;;13.60;78.59;99265.44;7359268;19;19923;-63
2023/03/23 00:41:44;;;;;;;;;;;;;;;13.57;78.05;99262.38;7355341;19;19919;-63
2023/03/23 00:44:16;;;;;;;;;;;;;;;13.54;78.16;99268.09;7358816;19;19929;-64
2023/03/23 00:46:49;;;;;;;;;;;;;;;13.57;79.26;99257.91;7354777;19;19918;-64
2023/03/23 00:49:18;;;;;;;;;;;;;;;13.56;77.85;99266.06;7356255;19;19911;-64
2023/03/23 00:51:45;;;;;;;;;;;;;;;13.57;78.67;99257.09;7356680;19;19926;-62
2023/03/23 00:54:12;;;;;;;;;;;;;;;13.56;78.52;99277.41;7354016;19;19918;-63
2023/03/23 00:56:39;;;;;;;;;;;;;;;13.55;78.23;99267.91;7369188;19;19919;-63
2023/03/23 00:59:07;;;;;;;;;;;;;;;13.57;79.09;99284.34;7375463;19;19925;-64
2023/03/23 01:01:35;;;;;;;;;;;;;;;13.58;78.47;99290.44;7358630;19;19930;-63
2023/03/23 01:04:04;;;;;;;;;;;;;;;13.55;77.81;99281.09;7353048;19;19930;-63
2023/03/23 01:06:34;;;;;;;;;;;;;;;13.56;76.89;99279.28;7355437;19;19918;-64
2023/03/23 01:09:02;;;;;;;;;;;;;;;13.57;77.81;99283.53;7357617;19;19998;-64
2023/03/23 01:11:29;;;;;;;;;;;;;;;13.55;77.58;99280.28;7358984;19;20318;-64
2023/03/23 01:13:56;;;;;;;;;;;;;;;13.53;77.12;99295.53;7362918;19;19930;-64
2023/03/23 01:16:23;;;;;;;;;;;;;;;13.50;76.88;99286.22;7365708;19;21058;-66
2023/03/23 01:18:50;;;;;;;;;;;;;;;13.46;77.48;99284.19;7360007;19;20328;-64
2023/03/23 01:21:19;;;;;;;;;;;;;;;13.45;77.97;99290.50;7365332;19;20447;-65
2023/03/23 01:23:46;;;;;;;;;;;;;;;13.46;77.41;99298.19;7363228;19;19927;-64
2023/03/23 01:26:15;;;;;;;;;;;;;;;13.45;77.60;99296.59;7364992;19;19929;-64
2023/03/23 01:28:42;;;;;;;;;;;;;;;13.46;77.09;99298.19;7364883;19;19919;-63
2023/03/23 01:31:11;;;;;;;;;;;;;;;13.44;76.58;99307.38;7364064;19;19986;-63
2023/03/23 01:33:40;;;;;;;;;;;;;;;13.33;75.85;99300.91;7363842;19;19923;-63
2023/03/23 01:36:10;;;;;;;;;;;;;;;13.28;76.16;99306.00;7366062;19;20505;-63
2023/03/23 01:38:37;;;;;;;;;;;;;;;13.27;75.70;99317.56;7361102;19;20019;-63
2023/03/23 01:41:04;;;;;;;;;;;;;;;13.26;76.78;99311.47;7361786;19;19938;-64
2023/03/23 01:43:31;;;;;;;;;;;;;;;13.25;76.93;99320.44;7363413;19;19941;-64
2023/03/23 01:45:58;;;;;;;;;;;;;;;13.26;77.15;99311.47;7364308;19;20542;-63
2023/03/23 01:48:26;;;;;;;;;;;;;;;13.27;77.09;99318.38;7363339;19;19922;-63
2023/03/23 01:50:57;;;;;;;;;;;;;;;13.28;77.45;99322.66;7362395;19;19918;-63
2023/03/23 01:53:26;;;;;;;;;;;;;;;13.28;76.19;99316.56;7359304;19;19915;-63
2023/03/23 01:55:54;;;;;;;;;;;;;;;13.26;76.71;99323.88;7363620;19;19922;-64
2023/03/23 01:58:25;;;;;;;;;;;;;;;13.24;76.57;99328.56;7363303;19;20221;-64
2023/03/23 02:00:55;;;;;;;;;;;;;;;13.24;76.30;99320.63;7362687;19;19934;-63
2023/03/23 02:03:23;;;;;;;;;;;;;;;13.24;77.62;99324.09;7362190;19;19930;-64
2023/03/23 02:05:50;;;;;;;;;;;;;;;13.25;77.53;99331.00;7366582;19;19922;-64
2023/03/23 02:08:18;;;;;;;;;;;;;;;13.22;76.09;99325.31;7359922;19;20580;-63
2023/03/23 02:10:45;;;;;;;;;;;;;;;13.23;76.63;99332.22;7362050;19;19918;-63
2023/03/23 02:13:17;;;;;;;;;;;;;;;13.24;77.64;99324.09;7363069;19;20416;-63
2023/03/23 02:15:47;;;;;;;;;;;;;;;13.21;75.83;99321.03;7363807;19;20663;-63
2023/03/23 02:18:17;;;;;;;;;;;;;;;13.20;76.51;99322.06;7361230;19;19914;-64
2023/03/23 02:20:44;;;;;;;;;;;;;;;13.15;75.72;99322.69;7362335;19;19997;-64
2023/03/23 02:23:11;;;;;;;;;;;;;;;13.13;76.13;99330.00;7361163;19;19942;-63
2023/03/23 02:25:39;;;;;;;;;;;;;;;13.14;76.15;99330.81;7360580;19;19915;-64
2023/03/23 02:28:07;;;;;;;;;;;;;;;13.13;76.51;99326.56;7362100;19;19919;-63
2023/03/23 02:30:37;;;;;;;;;;;;;;;13.12;75.91;99331.03;7359432;19;19907;-63
2023/03/23 02:33:09;;;;;;;;;;;;;;;13.11;75.82;99339.09;7359911;19;20585;-63
2023/03/23 02:35:39;;;;;;;;;;;;;;;13.08;76.39;99339.53;7362701;19;19927;-64
2023/03/23 02:38:09;;;;;;;;;;;;;;;13.07;76.34;99336.06;7358383;19;20868;-63
2023/03/23 02:40:40;;;;;;;;;;;;;;;13.04;76.37;99333.84;7360366;19;20581;-62
2023/03/23 02:43:09;;;;;;;;;;;;;;;13.01;76.66;99322.88;7362812;19;20527;-64
2023/03/23 02:45:37;;;;;;;;;;;;;;;12.98;76.77;99332.03;7361700;19;19944;-64
2023/03/23 02:48:06;;;;;;;;;;;;;;;12.96;77.58;99341.16;7362852;19;19923;-64
2023/03/23 02:50:35;;;;;;;;;;;;;;;12.95;78.34;99340.38;7363770;19;20269;-63
2023/03/23 02:53:04;;;;;;;;;;;;;;;12.94;77.38;99336.09;7360216;19;19926;-63
2023/03/23 02:55:32;;;;;;;;;;;;;;;12.90;76.93;99340.16;7359122;19;20010;-63
2023/03/23 02:58:01;;;;;;;;;;;;;;;12.86;76.26;99347.69;7359331;19;20329;-63
2023/03/23 03:00:29;;;;;;;;;;;;;;;12.85;76.54;99345.22;7362869;19;19922;-65
2023/03/23 03:02:57;;;;;;;;;;;;;;;12.82;76.16;99345.66;7360414;19;19927;-63
2023/03/23 03:05:24;;;;;;;;;;;;;;;12.79;76.36;99335.50;7361315;19;19923;-64
2023/03/23 03:07:54;;;;;;;;;;;;;;;12.78;76.93;99339.16;7360233;19;19937;-64
2023/03/23 03:10:25;;;;;;;;;;;;;;;12.76;76.30;99336.72;7357760;19;20274;-63
2023/03/23 03:12:55;;;;;;;;;;;;;;;12.78;76.75;99349.72;7362396;19;20013;-65
2023/03/23 03:15:26;;;;;;;;;;;;;;;12.80;77.11;99343.22;7358082;19;20632;-65
2023/03/23 03:17:56;;;;;;;;;;;;;;;12.78;76.90;99345.25;7361990;19;19918;-64
2023/03/23 03:20:26;;;;;;;;;;;;;;;12.80;77.88;99340.56;7360217;19;19922;-64
2023/03/23 03:22:54;;;;;;;;;;;;;;;12.79;77.63;99343.44;7360047;19;20320;-63
2023/03/23 03:25:23;;;;;;;;;;;;;;;12.74;77.24;99343.22;7357331;19;19949;-63
2023/03/23 03:27:52;;;;;;;;;;;;;;;12.70;77.71;99339.34;7362036;19;19937;-65
2023/03/23 03:30:23;;;;;;;;;;;;;;;12.66;78.48;99346.88;7361492;19;20022;-66
2023/03/23 03:32:53;;;;;;;;;;;;;;;12.62;79.06;99353.56;7360683;19;19911;-64
2023/03/23 03:35:21;;;;;;;;;;;;;;;12.59;78.04;99353.19;7361312;19;19919;-63
2023/03/23 03:37:50;;;;;;;;;;;;;;;12.56;78.42;99348.28;7359340;19;19926;-63
2023/03/23 03:40:19;;;;;;;;;;;;;;;12.56;79.29;99361.47;7359864;19;20312;-63
2023/03/23 03:42:46;;;;;;;;;;;;;;;12.55;79.82;99357.22;7357540;19;19918;-64
2023/03/23 03:45:15;;;;;;;;;;;;;;;12.49;79.06;99364.13;7360661;19;19948;-64
2023/03/23 03:47:42;;;;;;;;;;;;;;;12.45;78.59;99368.16;7358263;19;20621;-64
2023/03/23 03:50:10;;;;;;;;;;;;;;;12.43;78.47;99370.19;7359361;19;20483;-63
2023/03/23 03:52:38;;;;;;;;;;;;;;;12.39;78.61;99364.50;7358271;19;19937;-65
2023/03/23 03:55:06;;;;;;;;;;;;;;;12.39;79.14;99363.72;7358784;19;20284;-64
2023/03/23 03:57:34;;;;;;;;;;;;;;;12.36;79.39;99370.19;7356681;19;19952;-64
2023/03/23 04:00:12;;;;;;;;;;;;;;;12.37;79.38;99369.19;7361987;19;19992;-63
2023/03/23 04:02:42;;;;;;;;;;;;;;;12.35;79.45;99373.00;7357087;19;19929;-63
2023/03/23 04:05:11;;;;;;;;;;;;;;;12.33;79.31;99364.50;7360436;19;20399;-64
2023/03/23 04:07:39;;;;;;;;;;;;;;;12.31;79.96;99375.25;7359675;19;19923;-64
2023/03/23 04:10:06;;;;;;;;;;;;;;;12.33;80.59;99367.97;7358591;19;19927;-63
2023/03/23 04:12:34;;;;;;;;;;;;;;;12.29;79.84;99381.75;7360888;19;19922;-63
2023/03/23 04:15:01;;;;;;;;;;;;;;;12.28;79.83;99377.47;7362732;19;19915;-64
2023/03/23 04:17:32;;;;;;;;;;;;;;;12.25;80.17;99380.50;7358316;19;19926;-64
2023/03/23 04:19:59;;;;;;;;;;;;;;;12.25;79.84;99381.31;7357674;19;19929;-63
2023/03/23 04:24:58;;;;;;;;;;;;;;;12.26;79.57;99380.31;7359612;19;19915;-62
2023/03/23 04:27:27;;;;;;;;;;;;;;;12.22;79.79;99389.63;7354633;19;19918;-63
2023/03/23 04:29:56;;;;;;;;;;;;;;;12.20;79.45;99391.66;7359170;19;19915;-63
2023/03/23 04:32:24;;;;;;;;;;;;;;;12.18;78.72;99393.69;7359102;19;19929;-63
2023/03/23 04:34:51;;;;;;;;;;;;;;;12.14;78.50;99396.91;7359017;19;19994;-62
2023/03/23 04:37:38;;;;;;;;;;;;;;;12.08;78.45;99401.16;7359243;19;19915;-64
2023/03/23 04:40:09;;;;;;;;;;;;;;;12.06;79.17;99399.72;7355510;19;20410;-65
2023/03/23 04:42:37;;;;;;;;;;;;;;;12.05;80.10;99398.91;7358298;19;19922;-64
2023/03/23 04:45:05;;;;;;;;;;;;;;;12.07;79.93;99396.06;7357845;19;19923;-63
2023/03/23 04:47:39;;;;;;;;;;;;;;;12.07;80.28;99403.97;7352393;19;19919;-63
2023/03/23 04:50:09;;;;;;;;;;;;;;;12.06;80.18;99405.00;7355710;19;19923;-64
2023/03/23 04:52:40;;;;;;;;;;;;;;;12.03;79.48;99405.41;7355751;19;20120;-66
2023/03/23 04:55:14;;;;;;;;;;;;;;;12.04;80.20;99407.81;7354070;19;19974;-64
2023/03/23 04:57:41;;;;;;;;;;;;;;;12.06;79.58;99411.06;7356875;19;19914;-64
2023/03/23 05:00:12;;;;;;;;;;;;;;;12.03;79.64;99408.03;7357934;19;19918;-63
2023/03/23 05:02:39;;;;;;;;;;;;;;;12.05;80.26;99412.09;7358781;19;19919;-63
2023/03/23 05:05:07;;;;;;;;;;;;;;;12.04;80.76;99415.72;7358916;19;19918;-63
2023/03/23 05:07:34;;;;;;;;;;;;;;;12.02;79.72;99412.50;7361182;19;19937;-63
2023/03/23 05:10:01;;;;;;;;;;;;;;;12.05;80.78;99416.53;7357731;19;20341;-63
2023/03/23 05:12:28;;;;;;;;;;;;;;;11.98;80.13;99409.44;7355652;19;19911;-65
2023/03/23 05:14:55;;;;;;;;;;;;;;;11.97;81.02;99414.91;7359333;19;19942;-64
2023/03/23 05:17:23;;;;;;;;;;;;;;;11.95;81.11;99415.09;7357166;19;19926;-64
2023/03/23 05:19:51;;;;;;;;;;;;;;;11.97;82.02;99409.63;7355077;19;19927;-63
2023/03/23 05:22:20;;;;;;;;;;;;;;;11.99;83.11;99418.94;7354742;19;19922;-64
2023/03/23 05:24:47;;;;;;;;;;;;;;;12.02;83.01;99427.50;7356892;19;19926;-63
2023/03/23 05:27:14;;;;;;;;;;;;;;;12.05;83.48;99414.72;7355454;19;20826;-64
2023/03/23 05:29:41;;;;;;;;;;;;;;;12.10;82.99;99419.41;7356070;19;19954;-63
2023/03/23 05:32:08;;;;;;;;;;;;;;;12.12;82.94;99420.84;7356078;19;19923;-64
2023/03/23 05:34:35;;;;;;;;;;;;;;;12.17;82.83;99428.97;7356237;19;20473;-62
2023/03/23 05:37:03;;;;;;;;;;;;;;;12.18;82.56;99424.50;7357351;19;19938;-63
2023/03/23 05:39:30;;;;;;;;;;;;;;;12.18;82.01;99427.16;7354716;19;19927;-63
2023/03/23 05:41:58;;;;;;;;;;;;;;;12.20;82.38;99427.75;7353970;19;20351;-63
2023/03/23 05:44:26;;;;;;;;;;;;;;;12.20;81.93;99428.56;7357788;19;19911;-63
2023/03/23 05:46:59;;;;;;;;;;;;;;;12.23;83.53;99422.91;7355052;19;19942;-64
2023/03/23 05:49:26;;;;;;;;;;;;;;;12.22;81.80;99420.47;7356459;19;19919;-64
2023/03/23 05:51:54;;;;;;;;;;;;;;;12.19;81.65;99415.59;7356547;19;19923;-63
2023/03/23 05:54:21;;;;;;;;;;;;;;;12.13;81.18;99414.56;7352139;19;20714;-63
2023/03/23 05:56:48;;;;;;;;;;;;;;;12.10;81.49;99412.31;7356790;19;19934;-64
2023/03/23 05:59:19;;;;;;;;;;;;;;;12.05;81.52;99414.72;7356348;19;20357;-63
2023/03/23 06:01:46;;;;;;;;;;;;;;;12.04;82.70;99412.31;7368084;19;19922;-64
2023/03/23 06:04:16;;;;;;;;;;;;;;;12.03;83.12;99411.47;7361160;19;19925;-63
2023/03/23 06:06:43;;;;;;;;;;;;;;;12.02;82.42;99409.84;7365544;19;20275;-63
2023/03/23 06:09:11;;;;;;;;;;;;;;;12.03;82.30;99394.84;7372758;19;19994;-64
2023/03/23 06:11:38;;;;;;;;;;;;;;;12.02;81.90;99409.84;7375188;19;19915;-63
2023/03/23 06:14:05;;;;;;;;;;;;;;;12.02;82.00;99403.75;7372754;19;20409;-64
2023/03/23 06:16:32;;;;;;;;;;;;;;;11.99;81.06;99405.78;7364763;19;19919;-67
2023/03/23 06:19:00;;;;;;;;;;;;;;;12.07;82.18;99412.72;7359684;19;19915;-64
2023/03/23 06:21:27;;;;;;;;;;;;;;;12.10;82.18;99409.66;7361580;19;19937;-65
2023/03/23 06:23:55;;;;;;;;;;;;;;;12.13;81.33;99400.56;7361594;19;20407;-63
2023/03/23 06:26:25;;;;;;;;;;;;;;;12.16;80.47;99402.78;7363672;19;19914;-66
2023/03/23 06:28:52;;;;;;;;;;;;;;;12.17;80.44;99399.16;7360454;19;20599;-64
2023/03/23 06:31:20;;;;;;;;;;;;;;;12.21;81.42;99405.66;7364260;19;20332;-64
2023/03/23 06:33:47;;;;;;;;;;;;;;;12.25;80.99;99412.97;7360223;19;20465;-62
2023/03/23 06:36:14;;;;;;;;;;;;;;;12.27;80.68;99408.31;7360627;19;19922;-64
2023/03/23 06:38:41;;;;;;;;;;;;;;;12.26;80.00;99413.78;7360700;19;19914;-63
2023/03/23 06:41:08;;;;;;;;;;;;;;;12.30;81.34;99415.00;7363520;19;20322;-64
2023/03/23 06:43:39;;;;;;;;;;;;;;;12.38;82.40;99406.91;7354924;19;19946;-64
2023/03/23 06:46:06;;;;;;;;;;;;;;;12.44;82.11;99412.19;7360736;19;19919;-63
2023/03/23 06:48:33;;;;;;;;;;;;;;;12.54;82.44;99411.00;7363075;19;20113;-63
2023/03/23 06:51:00;;;;;;;;;;;;;;;12.58;81.55;99407.78;7361147;19;20474;-63
2023/03/23 06:53:27;;;;;;;;;;;;;;;12.61;82.18;99419.72;7363375;19;19919;-64
2023/03/23 06:55:54;;;;;;;;;;;;;;;12.57;81.18;99415.88;7361829;19;20041;-63
2023/03/23 06:58:23;;;;;;;;;;;;;;;12.57;81.13;99410.59;7362439;19;20122;-64
2023/03/23 07:00:53;;;;;;;;;;;;;;;12.63;82.65;99407.16;7356848;19;19923;-64
2023/03/23 07:03:20;;;;;;;;;;;;;;;12.67;82.96;99405.75;7360733;19;19919;-65
2023/03/23 07:05:47;;;;;;;;;;;;;;;12.73;82.91;99416.31;7362043;19;20343;-64
2023/03/23 07:08:14;;;;;;;;;;;;;;;12.82;81.78;99411.63;7361543;19;19926;-63
2023/03/23 07:10:42;;;;;;;;;;;;;;;12.89;82.60;99412.47;7359172;19;19918;-63
2023/03/23 07:13:10;;;;;;;;;;;;;;;12.93;82.08;99403.13;7363359;19;19923;-63
2023/03/23 07:15:38;;;;;;;;;;;;;;;12.94;81.56;99396.84;7359174;19;19923;-63
2023/03/23 07:18:06;;;;;;;;;;;;;;;12.95;82.21;99393.19;7359358;19;20287;-64
2023/03/23 07:20:33;;;;;;;;;;;;;;;13.02;83.44;99390.50;7359160;19;20219;-66
2023/03/23 07:23:01;;;;;;;;;;;;;;;13.02;81.51;99387.88;7359900;19;19938;-63
2023/03/23 07:25:28;;;;;;;;;;;;;;;13.21;82.82;99382.59;7355662;19;20766;-63
2023/03/23 07:27:56;;;;;;;;;;;;;;;13.42;82.83;99386.84;7361232;19;19923;-63
2023/03/23 07:30:23;;;;;;;;;;;;;;;13.66;80.70;99396.72;7361610;19;19915;-64
2023/03/23 07:32:55;;;;;;;;;;;;;;;13.88;79.86;99397.25;7360699;19;20228;-65
2023/03/23 07:35:23;;;;;;;;;;;;;;;14.12;79.21;99388.59;7363031;19;19941;-64
2023/03/23 07:37:51;;;;;;;;;;;;;;;14.38;77.37;99394.81;7359252;19;19934;-63
2023/03/23 07:40:26;;;;;;;;;;;;;;;14.92;74.82;99386.28;7358154;19;20006;-63
2023/03/23 07:42:55;;;;;;;;;;;;;;;15.24;73.08;99393.13;7359774;19;19925;-63
2023/03/23 07:45:22;;;;;;;;;;;;;;;15.22;71.27;99407.63;7360020;19;19919;-63
2023/03/23 07:47:50;;;;;;;;;;;;;;;15.02;72.91;99399.84;7360445;19;19929;-64
2023/03/23 07:50:21;;;;;;;;;;;;;;;14.90;73.79;99393.63;7356280;19;19915;-64
2023/03/23 07:52:48;;;;;;;;;;;;;;;14.85;73.31;99402.22;7362362;19;20099;-63
2023/03/23 07:55:17;;;;;;;;;;;;;;;15.12;73.04;99399.34;7359262;19;19941;-63
2023/03/23 07:57:45;;;;;;;;;;;;;;;15.31;70.89;99396.53;7363065;19;20391;-65
2023/03/23 08:00:18;;;;;;;;;;;;;;;15.87;70.28;99408.81;7359357;19;19929;-65
2023/03/23 08:02:46;;;;;;;;;;;;;;;16.24;67.61;99420.19;7359892;19;19929;-64
2023/03/23 08:05:14;;;;;;;;;;;;;;;16.32;66.46;99427.81;7361783;19;19919;-62
2023/03/23 08:07:42;;;;;;;;;;;;;;;16.14;65.54;99418.06;7357535;19;19919;-64
2023/03/23 08:10:10;;;;;;;;;;;;;;;15.82;66.92;99425.38;7357706;19;19919;-63
2023/03/23 08:12:38;;;;;;;;;;;;;;;15.65;68.09;99416.38;7355924;19;19966;-63
2023/03/23 08:15:06;;;;;;;;;;;;;;;15.52;68.86;99413.06;7358182;19;19923;-64
2023/03/23 08:17:34;;;;;;;;;;;;;;;15.42;68.97;99426.81;7358540;19;19926;-65
2023/03/23 08:20:08;;;;;;;;;;;;;;;15.31;68.74;99417.72;7356901;19;19915;-64
2023/03/23 08:22:36;;;;;;;;;;;;;;;15.20;68.52;99430.88;7358364;19;19927;-63
2023/03/23 08:25:17;;;;;;;;;;;;;;;15.34;69.42;99427.88;7356754;19;20850;-63
2023/03/23 08:27:45;;;;;;;;;;;;;;;15.73;68.85;99433.84;7358790;19;19922;-63
2023/03/23 08:30:13;;;;;;;;;;;;;;;16.16;64.73;99437.22;7355777;19;19914;-64
2023/03/23 08:32:41;;;;;;;;;;;;;;;16.20;63.95;99441.03;7355857;19;19919;-64
2023/03/23 08:35:09;;;;;;;;;;;;;;;16.02;65.69;99445.56;7358371;19;19914;-63
2023/03/23 08:37:37;;;;;;;;;;;;;;;15.86;65.37;99446.16;7357182;19;19925;-63
2023/03/23 08:42:38;;;;;;;;;;;;;;;15.67;65.81;99434.72;7357625;19;20213;-64
2023/03/23 08:45:06;;;;;;;;;;;;;;;15.60;66.51;99434.78;7362443;19;19930;-64
2023/03/23 08:47:35;;;;;;;;;;;;;;;15.62;66.49;99446.00;7356025;19;19930;-63
2023/03/23 08:50:03;;;;;;;;;;;;;;;15.57;65.61;99431.78;7354454;19;19929;-64
2023/03/23 08:52:30;;;;;;;;;;;;;;;15.64;65.41;99438.66;7356784;19;20510;-63
2023/03/23 08:54:57;;;;;;;;;;;;;;;15.64;66.08;99430.69;7356432;19;20279;-63
2023/03/23 08:57:26;;;;;;;;;;;;;;;15.51;64.96;99436.13;7359104;19;19927;-63
2023/03/23 08:59:57;;;;;;;;;;;;;;;15.45;68.14;99436.94;7361118;19;20007;-63
2023/03/23 09:02:24;;;;;;;;;;;;;;;15.44;68.12;99437.19;7357016;19;21250;-64
2023/03/23 09:04:52;;;;;;;;;;;;;;;15.45;67.05;99436.13;7359338;19;21377;-63
2023/03/23 09:07:19;;;;;;;;;;;;;;;15.38;66.82;99439.69;7358187;19;19919;-64
2023/03/23 09:09:47;;;;;;;;;;;;;;;15.41;66.93;99441.06;7356453;19;20550;-63
2023/03/23 09:12:14;;;;;;;;;;;;;;;15.44;66.25;99435.31;7361752;19;19987;-63
2023/03/23 09:14:41;;;;;;;;;;;;;;;15.47;66.75;99450.00;7358771;19;19921;-63
2023/03/23 09:17:10;;;;;;;;;;;;;;;15.45;66.65;99450.22;7358436;19;19929;-64
2023/03/23 09:19:38;;;;;;;;;;;;;;;15.44;66.55;99440.63;7360278;19;19945;-64
2023/03/23 09:22:05;;;;;;;;;;;;;;;15.47;67.55;99450.81;7359326;19;20388;-65
2023/03/23 09:24:32;;;;;;;;;;;;;;;15.49;67.08;99448.72;7351549;19;20512;-62
2023/03/23 09:27:00;;;;;;;;;;;;;;;15.47;66.44;99453.47;7357254;19;19958;-64
2023/03/23 09:29:28;;;;;;;;;;;;;;;15.50;66.91;99445.06;7357552;19;19928;-63
2023/03/23 09:31:56;;;;;;;;;;;;;;;15.52;66.17;99444.88;7354309;19;19922;-63
2023/03/23 09:34:23;;;;;;;;;;;;;;;15.56;66.60;99440.75;7360396;19;19954;-63
2023/03/23 09:36:51;;;;;;;;;;;;;;;15.54;67.16;99434.88;7359745;19;21656;-64
2023/03/23 09:39:19;;;;;;;;;;;;;;;15.53;67.90;99439.38;7364217;19;19926;-64
2023/03/23 09:41:49;;;;;;;;;;;;;;;15.48;66.76;99433.88;7361911;19;19929;-63
2023/03/23 09:44:22;;;;;;;;;;;;;;;15.52;66.62;99437.75;7362857;19;20379;-63
2023/03/23 09:46:51;;;;;;;;;;;;;;;15.57;66.94;99437.09;7363704;19;20002;-63
2023/03/23 09:49:23;;;;;;;;;;;;;;;15.57;67.55;99432.59;7359931;19;19919;-63
2023/03/23 09:51:53;;;;;;;;;;;;;;;15.63;67.12;99431.72;7363062;19;19911;-62
2023/03/23 09:54:20;;;;;;;;;;;;;;;15.63;66.61;99437.03;7361371;19;19919;-63
2023/03/23 09:56:48;;;;;;;;;;;;;;;15.65;67.00;99429.63;7364157;19;20513;-63
2023/03/23 09:59:18;;;;;;;;;;;;;;;15.79;67.92;99425.84;7360998;19;19923;-64
2023/03/23 10:01:48;;;;;;;;;;;;;;;15.93;66.67;99436.28;7360425;19;19919;-65
2023/03/23 10:04:21;;;;;;;;;;;;;;;16.00;65.16;99437.03;7365729;19;19934;-63
2023/03/23 10:06:49;;;;;;;;;;;;;;;15.99;63.77;99433.56;7363190;19;19919;-63
2023/03/23 10:09:18;;;;;;;;;;;;;;;15.97;62.27;99440.91;7359230;19;19974;-63
2023/03/23 10:11:47;;;;;;;;;;;;;;;16.03;62.48;99436.56;7363756;19;19931;-63
2023/03/23 10:14:22;;;;;;;;;;;;;;;16.00;63.19;99424.53;7364297;19;21562;-63
2023/03/23 10:16:55;;;;;;;;;;;;;;;16.02;62.98;99411.88;7361369;19;19922;-65
2023/03/23 10:19:25;;;;;;;;;;;;;;;15.97;61.40;99446.22;7364887;19;19964;-63
2023/03/23 10:21:56;;;;;;;;;;;;;;;16.13;60.91;99450.13;7362831;19;20495;-62
2023/03/23 10:24:29;;;;;;;;;;;;;;;16.31;61.73;99458.06;7363024;19;20581;-63
2023/03/23 10:27:05;;;;;;;;;;;;;;;16.34;60.87;99451.50;7364214;19;20390;-63
2023/03/23 10:29:36;;;;;;;;;;;;;;;16.30;60.87;99450.34;7362975;19;19915;-63
2023/03/23 10:32:09;;;;;;;;;;;;;;;16.23;60.88;99451.22;7358066;19;19958;-63
2023/03/23 10:34:40;;;;;;;;;;;;;;;16.23;61.33;99466.34;7364361;19;20003;-64
2023/03/23 10:37:08;;;;;;;;;;;;;;;16.20;62.04;99462.28;7361588;19;19922;-62
2023/03/23 10:39:38;;;;;;;;;;;;;;;16.20;61.54;99461.50;7363834;19;20257;-64
2023/03/23 10:42:07;;;;;;;;;;;;;;;16.18;60.67;99466.19;7366616;19;19929;-63
2023/03/23 10:44:34;;;;;;;;;;;;;;;16.12;60.85;99462.59;7361388;19;20011;-63
2023/03/23 10:47:04;;;;;;;;;;;;;;;16.16;61.15;99458.44;7365602;19;19972;-65
2023/03/23 10:49:34;;;;;;;;;;;;;;;16.18;60.94;99467.00;7360316;19;19937;-63
2023/03/23 10:52:02;;;;;;;;;;;;;;;16.22;60.04;99470.84;7362407;19;20361;-63
2023/03/23 10:54:32;;;;;;;;;;;;;;;16.26;60.92;99453.41;7357857;19;19930;-63
2023/03/23 10:56:59;;;;;;;;;;;;;;;16.33;60.80;99461.31;7357631;19;20622;-63
2023/03/23 10:59:32;;;;;;;;;;;;;;;16.49;60.76;99460.69;7363697;19;19918;-63
2023/03/23 11:02:02;;;;;;;;;;;;;;;16.54;60.17;99452.03;7361307;19;19915;-63
2023/03/23 11:04:31;;;;;;;;;;;;;;;16.62;59.92;99473.81;7361503;19;20370;-64
2023/03/23 11:07:00;;;;;;;;;;;;;;;16.71;60.93;99465.53;7364926;19;19932;-64
2023/03/23 11:09:30;;;;;;;;;;;;;;;16.79;61.44;99468.69;7363505;19;20618;-63
2023/03/23 11:11:58;;;;;;;;;;;;;;;16.84;59.85;99468.81;7360663;19;19919;-63
2023/03/23 11:14:29;;;;;;;;;;;;;;;16.76;60.31;99461.13;7363449;19;19914;-65
2023/03/23 11:17:00;;;;;;;;;;;;;;;16.72;61.08;99449.34;7363996;19;19986;-63
2023/03/23 11:19:41;;;;;;;;;;;;;;;16.76;61.83;99455.81;7360191;19;19998;-63
2023/03/23 11:22:14;;;;;;;;;;;;;;;16.80;61.43;99464.19;7361068;19;19926;-63
2023/03/23 11:24:45;;;;;;;;;;;;;;;16.75;61.94;99467.50;7362887;19;20009;-64
2023/03/23 11:27:13;;;;;;;;;;;;;;;16.78;62.75;99451.09;7361664;19;19919;-64
2023/03/23 11:29:44;;;;;;;;;;;;;;;16.80;63.76;99453.53;7359273;19;19915;-63
2023/03/23 11:32:26;;;;;;;;;;;;;;;16.83;63.72;99459.22;7359803;19;19919;-63
2023/03/23 11:34:56;;;;;;;;;;;;;;;16.89;64.34;99460.16;7361797;19;19925;-62
2023/03/23 11:37:42;;;;;;;;;;;;;;;16.87;63.30;99467.53;7357521;19;20529;-63
2023/03/23 11:40:11;;;;;;;;;;;;;;;16.81;64.31;99458.63;7359885;19;19917;-64
2023/03/23 11:42:41;;;;;;;;;;;;;;;16.83;64.15;99447.78;7358707;19;19926;-63
2023/03/23 11:45:11;;;;;;;;;;;;;;;16.80;63.90;99457.00;7362436;19;19915;-63
2023/03/23 11:47:41;;;;;;;;;;;;;;;16.84;63.94;99441.41;7362435;19;19921;-62
2023/03/23 11:50:10;;;;;;;;;;;;;;;16.77;63.05;99461.94;7360637;19;20013;-64
2023/03/23 11:52:38;;;;;;;;;;;;;;;16.73;62.99;99466.09;7359195;19;21105;-63
2023/03/23 11:55:09;;;;;;;;;;;;;;;16.76;62.63;99452.38;7361533;19;19923;-63
2023/03/23 11:57:36;;;;;;;;;;;;;;;16.80;62.38;99458.84;7356730;19;20502;-65
2023/03/23 12:00:07;;;;;;;;;;;;;;;16.82;62.53;99431.00;7362077;19;19923;-65
2023/03/23 12:02:34;;;;;;;;;;;;;;;16.74;61.48;99441.97;7358885;19;21643;-63
2023/03/23 12:05:05;;;;;;;;;;;;;;;16.58;62.71;99442.59;7363286;19;20363;-64
2023/03/23 12:07:36;;;;;;;;;;;;;;;16.55;64.94;99441.22;7361427;19;19933;-63
2023/03/23 12:10:06;;;;;;;;;;;;;;;16.64;67.53;99455.81;7360658;19;20023;-63
2023/03/23 12:12:36;;;;;;;;;;;;;;;16.77;66.81;99436.19;7356603;19;19982;-65
2023/03/23 12:15:07;;;;;;;;;;;;;;;16.83;63.28;99422.00;7360244;19;19945;-63
2023/03/23 12:17:41;;;;;;;;;;;;;;;16.87;63.53;99431.13;7356916;19;19986;-63
2023/03/23 12:20:14;;;;;;;;;;;;;;;16.87;61.92;99439.09;7359970;19;19925;-62
2023/03/23 12:22:44;;;;;;;;;;;;;;;16.98;62.64;99424.22;7361920;19;21728;-64
2023/03/23 12:25:15;;;;;;;;;;;;;;;17.06;61.30;99426.56;7357936;19;20821;-64
2023/03/23 12:27:46;;;;;;;;;;;;;;;17.04;60.18;99434.75;7360914;19;19918;-64
2023/03/23 12:30:17;;;;;;;;;;;;;;;17.05;60.70;99433.72;7357545;19;19925;-66
2023/03/23 12:32:47;;;;;;;;;;;;;;;17.09;61.34;99429.56;7360638;19;20316;-63
2023/03/23 12:35:17;;;;;;;;;;;;;;;17.20;61.31;99435.13;7359588;19;19939;-63
2023/03/23 12:37:53;;;;;;;;;;;;;;;17.30;61.94;99432.69;7359801;19;20014;-63
2023/03/23 12:40:28;;;;;;;;;;;;;;;17.38;60.87;99419.03;7360177;19;19922;-63
2023/03/23 12:42:58;;;;;;;;;;;;;;;17.44;60.30;99426.09;7360875;19;20287;-64
2023/03/23 12:45:29;;;;;;;;;;;;;;;17.45;59.78;99423.22;7360656;19;20168;-65
2023/03/23 12:48:00;;;;;;;;;;;;;;;17.33;59.08;99427.72;7358864;19;20477;-62
2023/03/23 12:50:30;;;;;;;;;;;;;;;17.29;59.82;99420.44;7359879;19;20280;-63
2023/03/23 12:53:04;;;;;;;;;;;;;;;17.30;60.00;99404.25;7357396;19;19922;-66
2023/03/23 12:55:34;;;;;;;;;;;;;;;17.27;59.70;99402.06;7360468;19;19918;-64
2023/03/23 12:58:05;;;;;;;;;;;;;;;17.29;59.30;99386.69;7360667;19;20279;-63
2023/03/23 13:00:38;;;;;;;;;;;;;;;17.33;59.49;99369.22;7357002;19;20513;-63
2023/03/23 13:03:08;;;;;;;;;;;;;;;17.40;58.45;99377.09;7357471;19;19969;-63
2023/03/23 13:05:40;;;;;;;;;;;;;;;17.44;57.67;99376.38;7358094;19;19922;-63
2023/03/23 13:08:12;;;;;;;;;;;;;;;17.42;56.17;99383.00;7362216;19;20272;-64